createdAt,value
2022-12-31T00:01:30.999Z,10.36
2022-12-31T00:03:57.669Z,10.13
2022-12-31T00:06:27.454Z,9.89
2022-12-31T00:08:55.002Z,9.63
2022-12-31T00:11:22.073Z,9.54
2022-12-31T00:13:48.709Z,9.49
2022-12-31T00:16:24.064Z,9.49
2022-12-31T00:18:52.159Z,9.72
2022-12-31T00:21:18.979Z,9.81
2022-12-31T00:23:45.645Z,9.80
2022-12-31T00:26:13.950Z,9.71
2022-12-31T00:28:41.022Z,9.73
2022-12-31T00:31:15.587Z,9.73
2022-12-31T00:33:42.461Z,9.94
2022-12-31T00:36:13.075Z,10.00
2022-12-31T00:38:40.552Z,9.76
2022-12-31T00:41:07.204Z,9.70
2022-12-31T00:43:34.061Z,9.51
2022-12-31T00:46:00.770Z,9.46
2022-12-31T00:48:27.576Z,9.35
2022-12-31T00:50:54.539Z,9.40
2022-12-31T00:53:21.375Z,9.55
2022-12-31T00:55:48.006Z,9.77
2022-12-31T00:58:14.757Z,9.86
2022-12-31T01:00:41.382Z,9.92
2022-12-31T01:03:08.068Z,9.97
2022-12-31T01:05:35.140Z,10.09
2022-12-31T01:08:01.850Z,10.21
2022-12-31T01:10:28.477Z,10.34
2022-12-31T01:12:55.191Z,10.41
2022-12-31T01:15:21.831Z,10.38
2022-12-31T01:17:48.539Z,10.46
2022-12-31T01:20:15.184Z,10.62
2022-12-31T01:22:41.829Z,10.59
2022-12-31T01:25:08.712Z,10.49
2022-12-31T01:27:35.346Z,10.34
2022-12-31T01:30:02.014Z,10.27
2022-12-31T01:32:28.673Z,10.30
2022-12-31T01:34:55.347Z,10.25
2022-12-31T01:37:22.000Z,10.36
2022-12-31T01:39:48.656Z,10.46
2022-12-31T01:42:15.285Z,10.55
2022-12-31T01:44:41.786Z,10.49
2022-12-31T01:47:13.893Z,10.55
2022-12-31T01:49:53.910Z,10.59
2022-12-31T01:52:31.370Z,10.68
2022-12-31T01:55:21.370Z,10.73
2022-12-31T01:57:51.920Z,10.81
2022-12-31T02:00:18.550Z,10.77
2022-12-31T02:02:45.405Z,10.82
2022-12-31T02:05:17.967Z,10.75
2022-12-31T02:07:44.640Z,10.75
2022-12-31T02:10:11.310Z,10.80
2022-12-31T02:12:37.992Z,10.80
2022-12-31T02:15:05.048Z,10.85
2022-12-31T02:17:43.309Z,10.91
2022-12-31T02:20:21.836Z,10.97
2022-12-31T02:23:12.057Z,10.95
2022-12-31T02:26:04.946Z,10.95
2022-12-31T02:29:08.418Z,11.07
2022-12-31T02:31:37.435Z,11.04
2022-12-31T02:34:07.896Z,10.94
2022-12-31T02:36:36.766Z,11.07
2022-12-31T02:39:04.154Z,11.06
2022-12-31T02:41:30.789Z,11.11
2022-12-31T02:43:57.442Z,11.08
2022-12-31T02:46:31.472Z,11.06
2022-12-31T02:49:12.317Z,11.01
2022-12-31T02:52:01.090Z,10.67
2022-12-31T02:54:32.037Z,10.45
2022-12-31T02:57:13.379Z,10.35
2022-12-31T02:59:50.295Z,10.41
2022-12-31T03:02:17.353Z,10.48
2022-12-31T03:04:52.106Z,10.55
2022-12-31T03:07:23.150Z,10.55
2022-12-31T03:09:50.233Z,10.69
2022-12-31T03:12:17.208Z,10.82
2022-12-31T03:14:43.847Z,10.75
2022-12-31T03:17:10.541Z,10.56
2022-12-31T03:19:37.257Z,10.62
2022-12-31T03:22:03.923Z,10.68
2022-12-31T03:24:30.688Z,10.75
2022-12-31T03:26:57.351Z,10.76
2022-12-31T03:29:23.974Z,10.77
2022-12-31T03:31:50.685Z,10.77
2022-12-31T03:34:17.370Z,10.85
2022-12-31T03:36:44.009Z,10.58
2022-12-31T03:39:10.785Z,10.45
2022-12-31T03:41:37.424Z,10.36
2022-12-31T03:44:04.061Z,10.58
2022-12-31T03:46:30.711Z,10.65
2022-12-31T03:48:57.348Z,10.73
2022-12-31T03:51:24.042Z,10.80
2022-12-31T03:53:50.692Z,11.00
2022-12-31T03:56:17.335Z,11.04
2022-12-31T03:58:45.036Z,11.05
2022-12-31T04:01:11.785Z,11.06
2022-12-31T04:03:38.468Z,11.12
2022-12-31T04:06:05.111Z,11.06
2022-12-31T04:08:31.745Z,11.15
2022-12-31T04:10:58.428Z,11.05
2022-12-31T04:13:25.085Z,11.05
2022-12-31T04:15:51.761Z,11.09
2022-12-31T04:18:18.447Z,11.04
2022-12-31T04:20:45.118Z,10.98
2022-12-31T04:23:11.763Z,11.06
2022-12-31T04:25:38.425Z,10.96
2022-12-31T04:28:05.096Z,10.93
2022-12-31T04:30:31.769Z,10.82
2022-12-31T04:32:58.423Z,10.80
2022-12-31T04:35:25.097Z,10.85
2022-12-31T04:37:51.763Z,10.78
2022-12-31T04:40:18.402Z,10.75
2022-12-31T04:42:45.042Z,10.80
2022-12-31T04:45:11.716Z,10.82
2022-12-31T04:47:38.370Z,10.84
2022-12-31T04:50:05.418Z,10.76
2022-12-31T04:52:34.616Z,10.83
2022-12-31T04:55:05.678Z,10.81
2022-12-31T04:57:32.313Z,10.88
2022-12-31T04:59:58.946Z,10.98
2022-12-31T05:02:25.757Z,11.03
2022-12-31T05:04:52.466Z,10.87
2022-12-31T05:07:19.138Z,10.88
2022-12-31T05:09:45.769Z,10.89
2022-12-31T05:12:12.395Z,10.83
2022-12-31T05:14:39.035Z,10.85
2022-12-31T05:17:05.714Z,10.80
2022-12-31T05:19:32.356Z,10.78
2022-12-31T05:21:59.009Z,10.79
2022-12-31T05:24:25.652Z,10.86
2022-12-31T05:26:52.289Z,10.82
2022-12-31T05:29:19.051Z,10.82
2022-12-31T05:31:45.726Z,10.70
2022-12-31T05:34:12.376Z,10.71
2022-12-31T05:36:39.009Z,10.73
2022-12-31T05:39:05.647Z,10.74
2022-12-31T05:41:32.307Z,10.73
2022-12-31T05:43:58.930Z,10.72
2022-12-31T05:46:25.601Z,10.70
2022-12-31T05:48:52.256Z,10.81
2022-12-31T05:51:18.913Z,10.74
2022-12-31T05:53:45.562Z,10.74
2022-12-31T05:56:12.232Z,10.72
2022-12-31T05:58:38.868Z,10.68
2022-12-31T06:01:05.567Z,10.73
2022-12-31T06:03:32.722Z,10.65
2022-12-31T06:06:01.161Z,10.71
2022-12-31T06:08:27.822Z,10.74
2022-12-31T06:10:54.480Z,10.76
2022-12-31T06:13:21.454Z,10.66
2022-12-31T06:15:48.113Z,10.63
2022-12-31T06:18:14.758Z,10.62
2022-12-31T06:20:41.413Z,10.68
2022-12-31T06:23:08.044Z,10.64
2022-12-31T06:25:35.093Z,10.59
2022-12-31T06:28:01.736Z,10.54
2022-12-31T06:30:28.399Z,10.48
2022-12-31T06:32:55.258Z,10.47
2022-12-31T06:35:22.207Z,10.37
2022-12-31T06:37:48.833Z,10.37
2022-12-31T06:40:15.503Z,10.37
2022-12-31T06:42:42.204Z,10.30
2022-12-31T06:45:09.043Z,10.27
2022-12-31T06:47:35.703Z,10.25
2022-12-31T06:50:02.352Z,10.19
2022-12-31T06:52:29.097Z,10.21
2022-12-31T06:54:55.942Z,10.15
2022-12-31T06:57:22.697Z,10.25
2022-12-31T06:59:49.615Z,10.21
2022-12-31T07:02:31.722Z,10.19
2022-12-31T07:04:58.592Z,10.16
2022-12-31T07:07:55.318Z,10.13
2022-12-31T07:10:34.883Z,10.15
2022-12-31T07:13:26.191Z,10.28
2022-12-31T07:16:28.149Z,10.38
2022-12-31T07:19:31.940Z,10.36
2022-12-31T07:21:59.519Z,10.43
2022-12-31T07:24:26.529Z,10.48
2022-12-31T07:27:30.729Z,10.50
2022-12-31T07:30:10.789Z,10.60
2022-12-31T07:32:56.125Z,10.59
2022-12-31T07:35:41.484Z,10.70
2022-12-31T07:38:11.478Z,10.74
2022-12-31T07:41:07.331Z,10.82
2022-12-31T07:43:47.397Z,10.82
2022-12-31T07:46:31.209Z,10.94
2022-12-31T07:48:58.394Z,11.01
2022-12-31T07:51:25.484Z,11.00
2022-12-31T07:54:13.673Z,11.01
2022-12-31T07:56:41.305Z,11.11
2022-12-31T07:59:24.677Z,11.16
2022-12-31T08:02:04.169Z,11.14
2022-12-31T08:04:39.876Z,11.30
2022-12-31T08:07:18.271Z,11.29
2022-12-31T08:10:00.024Z,11.49
2022-12-31T08:12:27.569Z,11.47
2022-12-31T08:14:54.307Z,11.63
2022-12-31T08:17:21.060Z,13.41
2022-12-31T08:19:47.993Z,14.91
2022-12-31T08:22:37.538Z,15.57
2022-12-31T08:25:14.776Z,17.11
2022-12-31T08:28:05.478Z,17.76
2022-12-31T08:30:50.378Z,17.96
2022-12-31T08:33:33.287Z,17.53
2022-12-31T08:36:14.640Z,17.14
2022-12-31T08:39:12.259Z,16.61
2022-12-31T08:41:42.876Z,16.20
2022-12-31T08:44:32.401Z,15.80
2022-12-31T08:47:09.244Z,15.58
2022-12-31T08:49:35.971Z,15.37
2022-12-31T08:52:02.834Z,15.23
2022-12-31T08:54:29.731Z,15.27
2022-12-31T08:57:14.432Z,15.35
2022-12-31T08:59:43.881Z,15.33
2022-12-31T09:02:10.493Z,15.51
2022-12-31T09:05:23.832Z,15.76
2022-12-31T09:08:16.504Z,15.97
2022-12-31T09:11:28.049Z,16.15
2022-12-31T09:14:28.693Z,16.27
2022-12-31T09:17:10.482Z,16.22
2022-12-31T09:19:37.194Z,16.38
2022-12-31T09:22:03.963Z,16.67
2022-12-31T09:24:30.886Z,17.27
2022-12-31T09:27:03.816Z,17.58
2022-12-31T09:29:55.439Z,17.78
2022-12-31T09:33:01.635Z,18.04
2022-12-31T09:35:47.286Z,18.44
2022-12-31T09:38:18.329Z,18.85
2022-12-31T09:40:47.934Z,19.00
2022-12-31T09:43:35.945Z,19.67
2022-12-31T09:46:20.445Z,19.61
2022-12-31T09:49:03.895Z,19.62
2022-12-31T09:51:32.830Z,19.59
2022-12-31T09:54:22.795Z,19.39
2022-12-31T09:57:08.736Z,19.07
2022-12-31T09:59:40.963Z,18.83
2022-12-31T10:02:19.996Z,18.55
2022-12-31T10:04:56.449Z,18.14
2022-12-31T10:07:35.108Z,17.98
2022-12-31T10:10:15.214Z,17.69
2022-12-31T10:12:58.183Z,17.62
2022-12-31T10:15:48.361Z,17.44
2022-12-31T10:18:33.209Z,17.34
2022-12-31T10:21:10.304Z,17.26
2022-12-31T10:23:47.814Z,17.15
2022-12-31T10:26:17.272Z,17.05
2022-12-31T10:28:54.000Z,16.91
2022-12-31T10:31:41.563Z,16.78
2022-12-31T10:34:15.330Z,16.69
2022-12-31T10:36:55.389Z,16.59
2022-12-31T10:39:41.117Z,16.53
2022-12-31T10:42:29.025Z,16.48
2022-12-31T10:45:23.536Z,16.40
2022-12-31T10:48:18.437Z,16.33
2022-12-31T10:50:57.461Z,16.32
2022-12-31T10:53:24.012Z,16.32
2022-12-31T10:56:19.694Z,16.27
2022-12-31T10:58:52.117Z,16.17
2022-12-31T11:01:21.587Z,16.11
2022-12-31T11:03:50.909Z,16.08
2022-12-31T11:06:24.431Z,16.06
2022-12-31T11:09:00.081Z,16.06
2022-12-31T11:12:05.013Z,16.10
2022-12-31T11:14:41.596Z,16.02
2022-12-31T11:17:21.633Z,16.11
2022-12-31T11:19:57.828Z,16.00
2022-12-31T11:22:47.494Z,15.98
2022-12-31T11:25:46.598Z,15.97
2022-12-31T11:28:43.996Z,15.98
2022-12-31T11:31:22.644Z,15.94
2022-12-31T11:34:03.660Z,16.03
2022-12-31T11:36:33.273Z,15.68
2022-12-31T11:39:31.340Z,15.69
2022-12-31T11:42:23.705Z,15.67
2022-12-31T11:45:12.736Z,15.71
2022-12-31T11:48:29.133Z,15.80
2022-12-31T11:51:06.900Z,15.74
2022-12-31T11:53:42.458Z,15.67
2022-12-31T11:56:19.776Z,15.70
2022-12-31T11:58:48.939Z,15.67
2022-12-31T12:01:46.441Z,15.61
2022-12-31T12:04:13.072Z,15.66
2022-12-31T12:06:40.007Z,15.57
2022-12-31T12:09:10.499Z,15.65
2022-12-31T12:11:43.221Z,15.70
2022-12-31T12:14:26.993Z,15.70
2022-12-31T12:16:57.850Z,15.76
2022-12-31T12:19:31.535Z,15.70
2022-12-31T12:21:58.240Z,15.75
2022-12-31T12:24:28.851Z,15.72
2022-12-31T12:26:55.863Z,15.75
2022-12-31T12:29:33.102Z,15.74
2022-12-31T12:32:02.559Z,15.79
2022-12-31T12:34:36.822Z,15.74
2022-12-31T12:37:03.470Z,15.82
2022-12-31T12:39:32.323Z,15.80
2022-12-31T12:42:10.635Z,15.75
2022-12-31T12:44:37.343Z,15.81
2022-12-31T12:47:06.049Z,15.88
2022-12-31T12:49:40.598Z,15.82
2022-12-31T12:52:29.110Z,15.91
2022-12-31T12:55:07.452Z,15.89
2022-12-31T12:57:34.578Z,15.90
2022-12-31T13:00:05.525Z,15.93
2022-12-31T13:02:35.149Z,16.00
2022-12-31T13:05:25.955Z,15.92
2022-12-31T13:08:19.612Z,15.95
2022-12-31T13:10:49.052Z,16.01
2022-12-31T13:13:30.730Z,16.01
2022-12-31T13:16:22.410Z,15.97
2022-12-31T13:19:11.395Z,16.07
2022-12-31T13:21:50.898Z,16.12
2022-12-31T13:24:44.283Z,16.26
2022-12-31T13:27:29.518Z,16.27
2022-12-31T13:29:59.133Z,16.24
2022-12-31T13:32:42.919Z,16.25
2022-12-31T13:35:24.592Z,16.26
2022-12-31T13:37:51.489Z,16.26
2022-12-31T13:40:21.769Z,16.35
2022-12-31T13:42:53.808Z,16.34
2022-12-31T13:45:47.330Z,16.44
2022-12-31T13:48:17.401Z,16.49
2022-12-31T13:50:55.002Z,16.61
2022-12-31T13:53:38.737Z,16.54
2022-12-31T13:56:13.226Z,16.55
2022-12-31T13:58:47.430Z,16.44
2022-12-31T14:01:33.418Z,16.62
2022-12-31T14:04:17.087Z,16.50
2022-12-31T14:07:10.661Z,16.44
2022-12-31T14:09:37.353Z,16.37
2022-12-31T14:12:37.740Z,16.27
2022-12-31T14:15:10.767Z,16.22
2022-12-31T14:18:11.363Z,16.20
2022-12-31T14:20:57.104Z,16.20
2022-12-31T14:23:29.590Z,16.12
2022-12-31T14:26:08.724Z,16.07
2022-12-31T14:28:47.674Z,16.13
2022-12-31T14:31:46.053Z,16.01
2022-12-31T14:34:31.950Z,15.99
2022-12-31T14:37:01.249Z,16.05
2022-12-31T14:39:54.996Z,15.98
2022-12-31T14:42:36.446Z,15.85
2022-12-31T14:45:15.339Z,15.75
2022-12-31T14:47:52.696Z,15.69
2022-12-31T14:50:24.577Z,15.67
2022-12-31T14:53:00.124Z,15.66
2022-12-31T14:55:34.385Z,15.70
2022-12-31T14:58:27.103Z,15.62
2022-12-31T15:01:02.247Z,15.52
2022-12-31T15:03:31.774Z,15.65
2022-12-31T15:06:02.323Z,15.63
2022-12-31T15:08:35.420Z,15.53
2022-12-31T15:11:04.842Z,15.42
2022-12-31T15:14:03.437Z,15.36
2022-12-31T15:16:36.845Z,15.14
2022-12-31T15:19:18.551Z,15.16
2022-12-31T15:21:56.253Z,14.97
2022-12-31T15:24:26.579Z,14.82
2022-12-31T15:26:57.544Z,14.76
2022-12-31T15:29:33.731Z,14.72
2022-12-31T15:32:02.381Z,14.77
2022-12-31T15:34:33.114Z,14.63
2022-12-31T15:37:01.690Z,14.55
2022-12-31T15:39:31.167Z,14.51
2022-12-31T15:44:55.175Z,14.23
2022-12-31T15:47:29.084Z,14.13
2022-12-31T15:49:56.001Z,14.36
2022-12-31T15:52:41.792Z,14.33
2022-12-31T15:55:09.003Z,14.47
2022-12-31T15:57:40.197Z,14.49
2022-12-31T16:00:18.465Z,14.47
2022-12-31T16:02:45.283Z,14.41
2022-12-31T16:05:25.159Z,14.42
2022-12-31T16:07:55.481Z,14.32
2022-12-31T16:10:31.709Z,14.21
2022-12-31T16:12:58.406Z,14.24
2022-12-31T16:15:27.203Z,14.23
2022-12-31T16:18:09.544Z,14.24
2022-12-31T16:20:41.433Z,14.18
2022-12-31T16:23:23.122Z,14.32
2022-12-31T16:25:50.546Z,14.40
2022-12-31T16:28:18.967Z,14.35
2022-12-31T16:30:45.665Z,14.31
2022-12-31T16:33:14.122Z,14.32
2022-12-31T16:35:40.812Z,14.24
2022-12-31T16:38:17.758Z,14.19
2022-12-31T16:41:02.530Z,14.18
2022-12-31T16:43:41.499Z,14.07
2022-12-31T16:46:17.275Z,13.97
2022-12-31T16:48:54.371Z,14.01
2022-12-31T16:51:22.330Z,13.96
2022-12-31T16:53:49.147Z,14.04
2022-12-31T16:56:38.514Z,13.97
2022-12-31T16:59:07.559Z,14.07
2022-12-31T17:01:34.523Z,14.00
2022-12-31T17:04:04.069Z,13.91
2022-12-31T17:06:30.736Z,13.88
2022-12-31T17:08:57.247Z,13.97
2022-12-31T17:11:42.639Z,13.91
2022-12-31T17:14:09.142Z,13.91
2022-12-31T17:17:02.067Z,13.93
2022-12-31T17:19:42.678Z,13.97
2022-12-31T17:22:13.739Z,13.91
2022-12-31T17:24:40.383Z,14.01
2022-12-31T17:27:07.769Z,14.10
2022-12-31T17:29:34.492Z,14.22
2022-12-31T17:32:19.227Z,14.12
2022-12-31T17:34:49.744Z,14.14
2022-12-31T17:37:18.678Z,13.83
2022-12-31T17:39:50.039Z,14.00
2022-12-31T17:42:28.705Z,14.03
2022-12-31T17:44:57.037Z,14.06
2022-12-31T17:47:23.695Z,14.08
2022-12-31T17:49:50.368Z,14.07
2022-12-31T17:52:17.003Z,14.09
2022-12-31T17:54:43.637Z,14.02
2022-12-31T17:57:26.741Z,13.85
2022-12-31T17:59:53.628Z,13.86
2022-12-31T18:02:20.343Z,13.70
2022-12-31T18:04:47.439Z,13.65
2022-12-31T18:07:14.095Z,13.72
2022-12-31T18:09:40.852Z,13.72
2022-12-31T18:12:07.555Z,13.90
2022-12-31T18:14:34.253Z,14.03
2022-12-31T18:17:00.917Z,13.98
2022-12-31T18:20:02.712Z,13.84
2022-12-31T18:22:15.347Z,13.84
2022-12-31T18:24:42.705Z,13.71
2022-12-31T18:27:19.016Z,13.63
2022-12-31T18:29:45.684Z,13.58
2022-12-31T18:32:42.750Z,13.44
2022-12-31T18:35:40.726Z,13.40
2022-12-31T18:38:06.992Z,13.29
2022-12-31T18:40:33.614Z,13.12
2022-12-31T18:43:04.873Z,13.20
2022-12-31T18:45:32.017Z,13.13
2022-12-31T18:47:58.670Z,13.11
2022-12-31T18:50:25.291Z,13.23
2022-12-31T18:52:51.936Z,13.15
2022-12-31T18:55:32.413Z,13.14
2022-12-31T18:57:59.084Z,13.09
2022-12-31T19:00:25.728Z,13.16
2022-12-31T19:02:52.455Z,13.07
2022-12-31T19:05:46.151Z,13.10
2022-12-31T19:08:12.779Z,13.18
2022-12-31T19:10:42.398Z,13.10
2022-12-31T19:13:18.580Z,13.08
2022-12-31T19:15:51.919Z,13.04
2022-12-31T19:18:18.690Z,12.85
2022-12-31T19:20:45.387Z,12.99
2022-12-31T19:23:16.502Z,13.08
2022-12-31T19:25:43.505Z,13.14
2022-12-31T19:28:26.540Z,13.12
2022-12-31T19:30:53.181Z,13.09
2022-12-31T19:33:20.028Z,12.98
2022-12-31T19:35:46.976Z,13.06
2022-12-31T19:38:21.959Z,12.94
2022-12-31T19:40:49.103Z,12.97
2022-12-31T19:43:16.916Z,12.89
2022-12-31T19:45:43.776Z,12.93
2022-12-31T19:48:14.412Z,13.03
2022-12-31T19:50:46.775Z,13.00
2022-12-31T19:53:17.834Z,13.07
2022-12-31T19:55:44.519Z,13.04
2022-12-31T19:58:21.707Z,13.04
2022-12-31T20:00:55.635Z,13.05
2022-12-31T20:03:25.109Z,13.00
2022-12-31T20:05:51.790Z,13.08
2022-12-31T20:08:18.471Z,13.01
2022-12-31T20:10:45.125Z,12.97
2022-12-31T20:13:11.773Z,12.98
2022-12-31T20:15:40.042Z,12.97
2022-12-31T20:18:06.689Z,12.97
2022-12-31T20:20:33.335Z,12.92
2022-12-31T20:23:02.901Z,12.97
2022-12-31T20:25:30.000Z,12.93
2022-12-31T20:27:56.668Z,12.89
2022-12-31T20:30:23.381Z,13.00
2022-12-31T20:32:52.475Z,12.96
2022-12-31T20:35:19.786Z,12.92
2022-12-31T20:37:46.426Z,12.95
2022-12-31T20:40:13.055Z,12.92
2022-12-31T20:42:43.281Z,12.96
2022-12-31T20:45:16.039Z,12.86
2022-12-31T20:47:42.683Z,12.76
2022-12-31T20:50:12.909Z,12.65
2022-12-31T20:52:42.790Z,12.56
2022-12-31T20:55:12.871Z,12.57
2022-12-31T20:57:40.158Z,12.45
2022-12-31T21:00:07.232Z,12.60
2022-12-31T21:02:42.778Z,12.45
2022-12-31T21:05:10.247Z,12.50
2022-12-31T21:07:37.022Z,12.59
2022-12-31T21:10:04.195Z,12.36
2022-12-31T21:12:30.861Z,12.25
2022-12-31T21:14:57.515Z,12.19
2022-12-31T21:17:24.149Z,12.19
2022-12-31T21:19:51.474Z,12.18
2022-12-31T21:22:18.115Z,12.11
2022-12-31T21:24:44.741Z,12.05
2022-12-31T21:27:11.375Z,11.92
2022-12-31T21:29:55.734Z,11.86
2022-12-31T21:32:24.633Z,12.02
2022-12-31T21:35:14.444Z,11.99
2022-12-31T21:37:58.195Z,12.00
2022-12-31T21:40:24.645Z,11.85
2022-12-31T21:42:51.290Z,11.80
2022-12-31T21:45:17.928Z,11.75
2022-12-31T21:47:47.635Z,11.75
2022-12-31T21:50:14.593Z,11.81
2022-12-31T21:52:41.248Z,11.83
2022-12-31T21:55:08.276Z,11.83
2022-12-31T21:57:59.034Z,11.88
2022-12-31T22:00:41.958Z,11.80
2022-12-31T22:03:09.949Z,11.87
2022-12-31T22:05:36.760Z,11.88
2022-12-31T22:08:03.511Z,11.83
2022-12-31T22:10:36.957Z,11.98
2022-12-31T22:13:03.987Z,12.12
2022-12-31T22:15:30.661Z,12.06
2022-12-31T22:17:57.286Z,12.17
2022-12-31T22:20:28.305Z,12.20
2022-12-31T22:22:55.430Z,12.13
2022-12-31T22:25:22.087Z,12.12
2022-12-31T22:28:04.459Z,12.06
2022-12-31T22:30:35.371Z,12.17
2022-12-31T22:33:02.029Z,12.22
2022-12-31T22:35:31.226Z,12.28
2022-12-31T22:38:01.700Z,12.39
2022-12-31T22:40:33.269Z,12.31
2022-12-31T22:42:59.932Z,12.22
2022-12-31T22:45:26.554Z,12.18
2022-12-31T22:47:53.230Z,12.13
2022-12-31T22:50:19.865Z,12.07
2022-12-31T22:52:46.609Z,12.00
2022-12-31T22:55:13.244Z,12.16
2022-12-31T22:57:39.893Z,11.98
2022-12-31T23:00:07.358Z,11.92
2022-12-31T23:02:38.402Z,11.91
2022-12-31T23:05:15.344Z,12.07
2022-12-31T23:10:10.349Z,12.00
2022-12-31T23:12:37.014Z,12.06
2022-12-31T23:15:08.918Z,12.05
2022-12-31T23:17:35.607Z,12.04
2022-12-31T23:20:05.617Z,12.06
2022-12-31T23:22:32.343Z,12.12
2022-12-31T23:24:59.028Z,12.31
2022-12-31T23:27:25.655Z,12.32
2022-12-31T23:29:52.426Z,12.30
2022-12-31T23:32:19.065Z,12.22
2022-12-31T23:34:46.063Z,12.21
2022-12-31T23:37:13.479Z,12.12
2022-12-31T23:39:40.157Z,12.20
2022-12-31T23:42:06.779Z,12.23
2022-12-31T23:44:33.431Z,12.27
2022-12-31T23:47:00.145Z,12.37
2022-12-31T23:49:26.857Z,12.28
2022-12-31T23:51:53.504Z,12.32
2022-12-31T23:54:20.183Z,12.18
2022-12-31T23:56:46.854Z,12.09
2022-12-31T23:59:13.531Z,12.12
